createdAt,value
2022-10-20T00:04:18.367Z,11.15
2022-10-20T00:06:45.016Z,11.40
2022-10-20T00:09:11.625Z,11.85
2022-10-20T00:11:38.156Z,12.10
2022-10-20T00:14:05.104Z,11.18
2022-10-20T00:16:36.366Z,10.88
2022-10-20T00:19:02.862Z,11.85
2022-10-20T00:21:29.400Z,11.32
2022-10-20T00:23:57.208Z,12.35
2022-10-20T00:26:25.901Z,11.00
2022-10-20T00:28:53.323Z,10.35
2022-10-20T00:31:21.647Z,11.10
2022-10-20T00:33:48.347Z,11.10
2022-10-20T00:36:17.944Z,11.23
2022-10-20T00:38:45.164Z,11.35
2022-10-20T00:41:19.558Z,11.43
2022-10-20T00:43:57.628Z,10.38
2022-10-20T00:46:28.572Z,11.85
2022-10-20T00:48:58.026Z,12.07
2022-10-20T00:51:27.715Z,10.82
2022-10-20T00:54:00.175Z,10.18
2022-10-20T00:56:26.801Z,11.18
2022-10-20T00:58:54.161Z,12.18
2022-10-20T01:01:20.645Z,11.15
2022-10-20T01:03:50.605Z,11.82
2022-10-20T01:06:20.103Z,11.93
2022-10-20T01:08:46.664Z,12.15
2022-10-20T01:11:18.294Z,11.25
2022-10-20T01:14:14.934Z,11.57
2022-10-20T01:16:47.742Z,11.55
2022-10-20T01:19:14.064Z,11.60
2022-10-20T01:21:56.932Z,11.10
2022-10-20T01:24:51.479Z,12.32
2022-10-20T01:27:35.023Z,11.82
2022-10-20T01:30:07.644Z,12.10
2022-10-20T01:32:47.170Z,12.20
2022-10-20T01:35:25.990Z,12.95
2022-10-20T01:38:30.291Z,13.10
2022-10-20T01:41:01.671Z,12.52
2022-10-20T01:43:32.588Z,12.80
2022-10-20T01:46:01.103Z,12.93
2022-10-20T01:48:32.556Z,12.45
2022-10-20T01:51:00.849Z,13.35
2022-10-20T01:53:27.966Z,13.55
2022-10-20T01:55:57.330Z,13.07
2022-10-20T01:58:29.499Z,13.30
2022-10-20T02:01:26.580Z,12.18
2022-10-20T02:03:56.559Z,11.80
2022-10-20T02:06:41.182Z,12.73
2022-10-20T02:09:15.751Z,13.18
2022-10-20T02:11:51.096Z,12.95
2022-10-20T02:14:20.123Z,12.65
2022-10-20T02:16:49.949Z,12.82
2022-10-20T02:19:20.941Z,13.40
2022-10-20T02:21:48.828Z,11.90
2022-10-20T02:24:17.530Z,13.10
2022-10-20T02:26:44.382Z,12.98
2022-10-20T02:29:18.406Z,12.32
2022-10-20T02:31:45.182Z,13.23
2022-10-20T02:34:12.739Z,13.38
2022-10-20T02:36:41.567Z,13.70
2022-10-20T02:39:09.379Z,13.27
2022-10-20T02:41:36.174Z,12.80
2022-10-20T02:44:03.303Z,13.77
2022-10-20T02:46:30.453Z,11.85
2022-10-20T02:48:56.804Z,12.45
2022-10-20T02:51:23.191Z,12.40
2022-10-20T02:53:49.559Z,12.35
2022-10-20T02:56:15.883Z,13.48
2022-10-20T02:58:42.327Z,13.68
2022-10-20T03:01:08.753Z,13.73
2022-10-20T03:03:35.544Z,12.25
2022-10-20T03:06:28.043Z,14.55
2022-10-20T03:08:54.465Z,14.32
2022-10-20T03:11:20.856Z,13.57
2022-10-20T03:13:47.301Z,14.63
2022-10-20T03:16:13.748Z,13.50
2022-10-20T03:18:40.117Z,12.57
2022-10-20T03:21:06.537Z,13.48
2022-10-20T03:23:32.951Z,13.38
2022-10-20T03:26:07.217Z,13.43
2022-10-20T03:28:33.981Z,12.40
2022-10-20T03:31:00.400Z,15.38
2022-10-20T03:33:35.044Z,14.55
2022-10-20T03:36:01.459Z,13.30
2022-10-20T03:38:28.014Z,13.60
2022-10-20T03:40:54.801Z,14.85
2022-10-20T03:43:21.455Z,15.82
2022-10-20T03:45:47.993Z,15.48
2022-10-20T03:48:14.601Z,15.77
2022-10-20T03:50:42.581Z,15.10
2022-10-20T03:53:13.027Z,14.93
2022-10-20T03:55:39.661Z,13.80
2022-10-20T03:58:06.129Z,14.07
2022-10-20T04:00:32.727Z,13.80
2022-10-20T04:02:59.198Z,14.93
2022-10-20T04:05:25.583Z,14.38
2022-10-20T04:07:51.985Z,14.90
2022-10-20T04:10:18.457Z,13.98
2022-10-20T04:12:46.218Z,15.30
2022-10-20T04:15:12.839Z,15.00
2022-10-20T04:20:11.489Z,15.55
2022-10-20T04:22:38.425Z,14.73
2022-10-20T04:25:05.518Z,18.83
2022-10-20T04:27:32.106Z,19.38
2022-10-20T04:29:58.463Z,20.20
2022-10-20T04:32:24.986Z,18.95
2022-10-20T04:34:51.485Z,19.70
2022-10-20T04:37:18.064Z,17.65
2022-10-20T04:39:44.723Z,18.75
2022-10-20T04:42:11.210Z,17.33
2022-10-20T04:44:37.572Z,17.05
2022-10-20T04:47:04.021Z,15.82
2022-10-20T04:49:30.628Z,16.48
2022-10-20T04:52:00.849Z,16.00
2022-10-20T04:54:27.540Z,15.85
2022-10-20T04:56:54.046Z,16.25
2022-10-20T04:59:20.509Z,17.33
2022-10-20T05:01:47.359Z,15.25
2022-10-20T05:04:14.231Z,16.52
2022-10-20T05:06:40.661Z,16.27
2022-10-20T05:09:07.298Z,15.13
2022-10-20T05:11:36.458Z,15.65
2022-10-20T05:14:04.552Z,16.55
2022-10-20T05:16:31.476Z,16.08
2022-10-20T05:18:57.858Z,15.82
2022-10-20T05:21:26.899Z,17.15
2022-10-20T05:24:01.553Z,16.05
2022-10-20T05:26:29.606Z,14.27
2022-10-20T05:28:55.999Z,15.00
2022-10-20T05:31:23.155Z,15.52
2022-10-20T05:33:55.229Z,14.27
2022-10-20T05:36:24.844Z,14.20
2022-10-20T05:38:53.890Z,13.50
2022-10-20T05:41:25.936Z,13.18
2022-10-20T05:43:54.523Z,14.75
2022-10-20T05:46:20.846Z,13.70
2022-10-20T05:48:47.734Z,12.85
2022-10-20T05:51:17.049Z,12.75
2022-10-20T05:53:44.638Z,13.95
2022-10-20T05:56:14.187Z,12.10
2022-10-20T05:58:41.694Z,12.60
2022-10-20T06:01:19.744Z,13.57
2022-10-20T06:03:49.305Z,13.32
2022-10-20T06:06:15.915Z,13.45
2022-10-20T06:08:42.612Z,13.55
2022-10-20T06:11:10.760Z,12.73
2022-10-20T06:13:37.271Z,11.90
2022-10-20T06:16:07.231Z,12.27
2022-10-20T06:18:34.777Z,12.25
2022-10-20T06:21:02.623Z,11.93
2022-10-20T06:23:31.202Z,11.77
2022-10-20T06:26:12.176Z,11.80
2022-10-20T06:31:16.403Z,11.10
2022-10-20T06:33:43.948Z,10.43
2022-10-20T06:36:11.586Z,11.20
2022-10-20T06:38:38.678Z,11.85
2022-10-20T06:41:08.864Z,11.68
2022-10-20T06:43:35.487Z,11.05
2022-10-20T06:46:09.041Z,11.48
2022-10-20T06:48:36.222Z,11.25
2022-10-20T06:51:05.901Z,11.50
2022-10-20T06:53:34.753Z,13.32
2022-10-20T06:56:07.129Z,12.77
2022-10-20T06:58:35.842Z,12.00
2022-10-20T07:01:10.165Z,15.35
2022-10-20T07:03:38.659Z,12.77
2022-10-20T07:06:06.787Z,10.55
2022-10-20T07:08:35.662Z,10.70
2022-10-20T07:11:23.285Z,10.63
2022-10-20T07:13:49.828Z,10.40
2022-10-20T07:16:21.587Z,9.70
2022-10-20T07:18:47.965Z,9.77
2022-10-20T07:21:19.809Z,9.40
2022-10-20T07:23:47.135Z,9.07
2022-10-20T07:26:15.508Z,8.82
2022-10-20T07:28:44.473Z,8.25
2022-10-20T07:31:14.126Z,9.07
2022-10-20T07:33:40.710Z,8.75
2022-10-20T07:36:14.298Z,8.45
2022-10-20T07:38:41.962Z,7.80
2022-10-20T07:41:08.927Z,8.10
2022-10-20T07:43:36.192Z,7.57
2022-10-20T07:46:02.641Z,6.82
2022-10-20T07:48:29.100Z,7.75
2022-10-20T07:51:12.367Z,7.88
2022-10-20T07:53:39.413Z,6.88
2022-10-20T07:56:06.119Z,7.28
2022-10-20T07:58:32.647Z,7.05
2022-10-20T08:00:59.180Z,6.13
2022-10-20T08:03:25.635Z,6.20
2022-10-20T08:05:52.022Z,6.60
2022-10-20T08:08:18.853Z,6.22
2022-10-20T08:10:45.204Z,5.47
2022-10-20T08:13:11.691Z,6.18
2022-10-20T08:15:40.980Z,5.15
2022-10-20T08:18:07.901Z,5.68
2022-10-20T08:20:36.459Z,5.45
2022-10-20T08:23:02.982Z,5.75
2022-10-20T08:25:29.457Z,4.82
2022-10-20T08:27:55.925Z,5.40
2022-10-20T08:30:24.180Z,4.95
2022-10-20T08:32:52.140Z,4.60
2022-10-20T08:35:19.038Z,5.57
2022-10-20T08:37:46.943Z,5.30
2022-10-20T08:40:18.285Z,5.53
2022-10-20T08:42:48.083Z,5.30
2022-10-20T08:45:18.303Z,5.72
2022-10-20T08:47:46.533Z,6.05
2022-10-20T08:50:15.113Z,5.40
2022-10-20T08:52:46.353Z,6.03
2022-10-20T08:55:24.880Z,4.45
2022-10-20T08:57:51.451Z,5.18
2022-10-20T09:00:21.539Z,4.80
2022-10-20T09:02:50.577Z,4.70
2022-10-20T09:05:21.359Z,4.63
2022-10-20T09:07:47.785Z,4.95
2022-10-20T09:10:25.700Z,5.18
2022-10-20T09:12:52.946Z,4.85
2022-10-20T09:15:21.076Z,4.25
2022-10-20T09:17:55.114Z,4.93
2022-10-20T09:20:38.729Z,4.53
2022-10-20T09:23:16.500Z,4.70
2022-10-20T09:25:52.696Z,4.18
2022-10-20T09:28:26.145Z,4.45
2022-10-20T09:30:54.067Z,4.55
2022-10-20T09:33:50.065Z,5.28
2022-10-20T09:36:21.206Z,4.25
2022-10-20T09:38:50.987Z,4.40
2022-10-20T09:41:21.817Z,3.97
2022-10-20T09:44:14.779Z,3.90
2022-10-20T09:46:47.392Z,4.30
2022-10-20T09:49:32.243Z,4.22
2022-10-20T09:52:03.015Z,4.05
2022-10-20T09:54:30.612Z,4.38
2022-10-20T09:57:09.324Z,4.63
2022-10-20T09:59:39.805Z,4.40
2022-10-20T10:02:30.678Z,4.32
2022-10-20T10:05:14.910Z,3.67
2022-10-20T10:07:44.040Z,4.53
2022-10-20T10:10:19.608Z,3.92
2022-10-20T10:12:58.407Z,4.30
2022-10-20T10:15:34.466Z,4.18
2022-10-20T10:18:14.178Z,3.53
2022-10-20T10:20:41.742Z,3.90
2022-10-20T10:23:18.925Z,4.18
2022-10-20T10:25:45.650Z,4.03
2022-10-20T10:28:41.218Z,3.88
2022-10-20T10:31:23.481Z,4.28
2022-10-20T10:34:01.500Z,3.72
2022-10-20T10:36:36.394Z,3.80
2022-10-20T10:39:05.395Z,3.95
2022-10-20T10:41:49.663Z,4.25
2022-10-20T10:44:38.474Z,4.53
2022-10-20T10:47:14.449Z,4.68
2022-10-20T10:49:51.421Z,4.65
2022-10-20T10:52:44.275Z,4.03
2022-10-20T10:55:47.158Z,4.75
2022-10-20T10:58:36.130Z,4.60
2022-10-20T11:01:05.728Z,3.70
2022-10-20T11:03:44.759Z,3.80
2022-10-20T11:06:38.104Z,4.63
2022-10-20T11:09:26.054Z,3.72
2022-10-20T11:12:13.852Z,4.43
2022-10-20T11:15:20.699Z,4.10
2022-10-20T11:17:54.806Z,4.10
2022-10-20T11:20:44.667Z,4.55
2022-10-20T11:23:35.210Z,4.95
2022-10-20T11:26:25.436Z,4.55
2022-10-20T11:28:56.491Z,5.00
2022-10-20T11:31:29.909Z,5.20
2022-10-20T11:34:17.973Z,4.32
2022-10-20T11:36:52.706Z,4.40
2022-10-20T11:39:37.842Z,4.50
2022-10-20T11:42:23.614Z,4.53
2022-10-20T11:44:52.372Z,4.97
2022-10-20T11:47:32.064Z,5.00
2022-10-20T11:49:58.960Z,5.20
2022-10-20T11:52:48.742Z,5.05
2022-10-20T11:55:40.274Z,6.30
2022-10-20T11:58:49.753Z,4.95
2022-10-20T12:01:28.937Z,4.55
2022-10-20T12:04:27.513Z,4.95
2022-10-20T12:07:13.189Z,5.75
2022-10-20T12:10:01.842Z,5.10
2022-10-20T12:12:37.681Z,4.75
2022-10-20T12:15:22.608Z,5.18
2022-10-20T12:17:50.951Z,4.95
2022-10-20T12:20:37.620Z,5.65
2022-10-20T12:23:05.042Z,5.53
2022-10-20T12:25:31.594Z,5.47
2022-10-20T12:28:22.411Z,5.57
2022-10-20T12:30:57.347Z,6.22
2022-10-20T12:33:40.512Z,6.30
2022-10-20T12:36:26.290Z,5.28
2022-10-20T12:38:54.744Z,6.10
2022-10-20T12:41:28.156Z,5.10
2022-10-20T12:44:00.193Z,5.97
2022-10-20T12:46:29.511Z,6.50
2022-10-20T12:49:01.695Z,6.45
2022-10-20T12:51:50.850Z,6.72
2022-10-20T12:54:28.430Z,5.97
2022-10-20T12:56:59.388Z,6.05
2022-10-20T12:59:28.997Z,5.32
2022-10-20T13:02:10.855Z,5.47
2022-10-20T13:05:00.247Z,5.30
2022-10-20T13:07:48.591Z,5.15
2022-10-20T13:10:41.113Z,5.63
2022-10-20T13:13:07.776Z,4.70
2022-10-20T13:15:36.963Z,5.28
2022-10-20T13:18:12.325Z,5.07
2022-10-20T13:21:16.240Z,4.70
2022-10-20T13:23:53.640Z,5.35
2022-10-20T13:26:31.026Z,5.72
2022-10-20T13:29:00.123Z,5.43
2022-10-20T13:31:41.826Z,5.82
2022-10-20T13:34:26.732Z,6.07
2022-10-20T13:37:01.983Z,5.50
2022-10-20T13:39:40.998Z,6.53
2022-10-20T13:42:07.330Z,5.63
2022-10-20T13:44:54.432Z,6.25
2022-10-20T13:47:52.841Z,5.32
2022-10-20T13:50:33.990Z,5.45
2022-10-20T13:53:10.239Z,5.07
2022-10-20T13:55:57.299Z,5.60
2022-10-20T13:58:25.601Z,5.25
2022-10-20T14:01:07.077Z,5.10
2022-10-20T14:03:44.997Z,6.18
2022-10-20T14:06:34.893Z,7.65
2022-10-20T14:09:15.314Z,5.95
2022-10-20T14:11:43.100Z,8.23
2022-10-20T14:14:14.336Z,7.60
2022-10-20T14:16:50.704Z,8.65
2022-10-20T14:19:20.717Z,7.18
2022-10-20T14:21:49.166Z,9.00
2022-10-20T14:24:23.519Z,9.38
2022-10-20T14:26:50.917Z,10.15
2022-10-20T14:29:18.902Z,10.20
2022-10-20T14:31:47.206Z,10.77
2022-10-20T14:34:22.906Z,10.77
2022-10-20T14:36:51.687Z,11.02
2022-10-20T14:39:31.790Z,9.88
2022-10-20T14:42:00.640Z,9.77
2022-10-20T14:44:31.416Z,11.00
2022-10-20T14:47:01.827Z,10.40
2022-10-20T14:49:32.396Z,10.00
2022-10-20T14:51:59.973Z,9.05
2022-10-20T14:54:37.395Z,11.32
2022-10-20T14:57:10.391Z,10.55
2022-10-20T14:59:52.061Z,10.25
2022-10-20T15:02:22.576Z,9.48
2022-10-20T15:04:50.237Z,10.60
2022-10-20T15:07:24.934Z,11.32
2022-10-20T15:09:53.793Z,12.13
2022-10-20T15:12:23.265Z,10.65
2022-10-20T15:14:54.252Z,10.57
2022-10-20T15:17:43.252Z,10.90
2022-10-20T15:20:31.270Z,12.20
2022-10-20T15:23:02.805Z,10.13
2022-10-20T15:25:43.548Z,11.45
2022-10-20T15:28:22.959Z,12.32
2022-10-20T15:30:49.590Z,12.48
2022-10-20T15:33:15.950Z,13.82
2022-10-20T15:35:42.298Z,14.40
2022-10-20T15:51:47.814Z,15.02
2022-10-20T15:54:16.555Z,14.07
2022-10-20T15:56:44.911Z,15.07
2022-10-20T15:59:11.752Z,15.15
2022-10-20T16:01:38.757Z,14.30
2022-10-20T16:04:20.824Z,15.20
2022-10-20T16:06:47.201Z,15.90
2022-10-20T16:09:16.004Z,15.23
2022-10-20T16:11:43.696Z,14.75
2022-10-20T16:14:10.248Z,15.10
2022-10-20T16:16:39.765Z,16.10
2022-10-20T16:19:06.174Z,15.20
2022-10-20T16:21:33.561Z,14.10
2022-10-20T16:24:01.493Z,13.80
2022-10-20T16:26:28.509Z,12.57
2022-10-20T16:28:55.092Z,14.27
2022-10-20T16:31:22.620Z,14.73
2022-10-20T16:33:48.990Z,14.50
2022-10-20T16:36:16.807Z,14.60
2022-10-20T16:38:43.569Z,16.23
2022-10-20T16:41:12.559Z,13.98
2022-10-20T16:43:41.181Z,14.23
2022-10-20T16:46:09.734Z,15.98
2022-10-20T16:48:37.914Z,14.63
2022-10-20T16:51:07.323Z,15.68
2022-10-20T16:53:34.222Z,15.60
2022-10-20T16:56:00.757Z,17.40
2022-10-20T16:58:27.447Z,16.45
2022-10-20T17:01:03.260Z,14.48
2022-10-20T17:03:30.047Z,15.85
2022-10-20T17:05:59.251Z,16.23
2022-10-20T17:08:26.063Z,15.85
2022-10-20T17:10:57.250Z,15.98
2022-10-20T17:13:25.628Z,16.48
2022-10-20T17:15:52.163Z,16.05
2022-10-20T17:18:19.315Z,18.48
2022-10-20T17:20:46.187Z,18.42
2022-10-20T17:23:12.707Z,17.92
2022-10-20T17:25:39.273Z,19.05
2022-10-20T17:28:05.634Z,16.77
2022-10-20T17:30:32.060Z,17.77
2022-10-20T17:32:58.418Z,18.00
2022-10-20T17:35:24.782Z,16.15
2022-10-20T17:37:51.108Z,17.05
2022-10-20T17:42:43.893Z,14.93
2022-10-20T17:45:10.941Z,16.52
2022-10-20T17:47:37.255Z,18.35
2022-10-20T17:50:04.214Z,18.40
2022-10-20T17:52:30.585Z,18.40
2022-10-20T17:54:56.918Z,17.83
2022-10-20T17:57:23.179Z,18.33
2022-10-20T17:59:53.402Z,17.20
2022-10-20T18:02:20.674Z,18.27
2022-10-20T18:04:47.380Z,18.63
2022-10-20T18:07:13.730Z,18.10
2022-10-20T18:09:40.997Z,15.73
2022-10-20T18:12:07.441Z,16.05
2022-10-20T18:14:34.086Z,15.55
2022-10-20T18:17:00.748Z,15.95
2022-10-20T18:19:27.176Z,16.80
2022-10-20T18:21:53.528Z,17.08
2022-10-20T18:24:23.385Z,14.65
2022-10-20T18:26:49.911Z,16.13
2022-10-20T18:29:16.966Z,16.95
2022-10-20T18:31:48.141Z,18.73
2022-10-20T18:34:16.897Z,17.35
2022-10-20T18:36:46.042Z,17.10
2022-10-20T18:39:13.335Z,18.02
2022-10-20T18:41:41.200Z,16.08
2022-10-20T18:44:12.015Z,16.50
2022-10-20T18:46:39.408Z,17.85
2022-10-20T18:49:07.448Z,18.92
2022-10-20T18:51:35.813Z,17.27
2022-10-20T18:54:03.745Z,19.23
2022-10-20T18:56:31.632Z,19.67
2022-10-20T18:59:01.017Z,16.70
2022-10-20T19:01:33.690Z,17.98
2022-10-20T19:04:01.089Z,18.25
2022-10-20T19:06:32.876Z,19.20
2022-10-20T19:09:02.123Z,19.33
2022-10-20T19:11:31.815Z,18.50
2022-10-20T19:13:59.096Z,17.73
2022-10-20T19:16:28.066Z,19.02
2022-10-20T19:18:56.526Z,18.25
2022-10-20T19:21:25.066Z,20.10
2022-10-20T19:23:53.776Z,18.90
2022-10-20T19:26:24.275Z,18.95
2022-10-20T19:29:06.024Z,18.42
2022-10-20T19:31:42.238Z,17.10
2022-10-20T19:34:27.243Z,19.58
2022-10-20T19:36:54.602Z,16.40
2022-10-20T19:39:28.248Z,17.00
2022-10-20T19:41:55.624Z,17.17
2022-10-20T19:44:23.410Z,15.27
2022-10-20T19:46:51.580Z,18.63
2022-10-20T19:49:20.489Z,18.40
2022-10-20T19:51:47.714Z,18.75
2022-10-20T19:54:14.314Z,17.65
2022-10-20T19:56:41.667Z,18.85
2022-10-20T19:59:13.953Z,19.67
2022-10-20T20:01:40.554Z,20.40
2022-10-20T20:04:07.473Z,20.50
2022-10-20T20:06:34.656Z,19.33
2022-10-20T20:09:05.731Z,19.00
2022-10-20T20:11:33.340Z,20.40
2022-10-20T20:14:02.798Z,20.27
2022-10-20T20:16:29.639Z,19.00
2022-10-20T20:18:56.348Z,20.60
2022-10-20T20:21:24.738Z,19.35
2022-10-20T20:23:59.378Z,21.98
2022-10-20T20:26:28.340Z,21.00
2022-10-20T20:28:55.485Z,20.08
2022-10-20T20:31:23.302Z,22.63
2022-10-20T20:33:50.229Z,18.77
2022-10-20T20:36:16.685Z,21.17
2022-10-20T20:38:43.053Z,20.67
2022-10-20T20:41:13.241Z,20.58
2022-10-20T20:43:39.816Z,22.27
2022-10-20T20:46:13.035Z,20.85
2022-10-20T20:48:40.211Z,19.10
2022-10-20T20:51:07.612Z,18.92
2022-10-20T20:53:35.641Z,18.98
2022-10-20T20:56:05.704Z,18.27
2022-10-20T20:58:33.831Z,19.08
2022-10-20T21:01:06.386Z,18.55
2022-10-20T21:03:33.567Z,17.98
2022-10-20T21:06:08.301Z,18.50
2022-10-20T21:08:36.936Z,17.98
2022-10-20T21:11:08.733Z,17.95
2022-10-20T21:13:36.565Z,19.60
2022-10-20T21:16:11.981Z,18.60
2022-10-20T21:18:39.646Z,18.15
2022-10-20T21:21:18.861Z,20.77
2022-10-20T21:23:46.473Z,20.90
2022-10-20T21:26:14.961Z,20.52
2022-10-20T21:28:42.483Z,18.52
2022-10-20T21:31:12.049Z,19.42
2022-10-20T21:33:39.526Z,18.88
2022-10-20T21:36:14.435Z,19.60
2022-10-20T21:38:43.112Z,20.60
2022-10-20T21:41:21.809Z,19.63
2022-10-20T21:43:53.346Z,18.75
2022-10-20T21:46:26.075Z,20.00
2022-10-20T21:48:55.102Z,20.95
2022-10-20T21:51:24.321Z,20.05
2022-10-20T21:53:57.605Z,19.48
2022-10-20T21:56:24.804Z,17.95
2022-10-20T21:58:52.256Z,21.25
2022-10-20T22:01:21.351Z,18.67
2022-10-20T22:03:48.573Z,17.15
2022-10-20T22:06:17.695Z,17.98
2022-10-20T22:08:46.869Z,17.00
2022-10-20T22:11:16.447Z,19.58
2022-10-20T22:13:43.071Z,18.63
2022-10-20T22:16:13.074Z,18.10
2022-10-20T22:18:39.671Z,18.95
2022-10-20T22:21:12.471Z,19.80
2022-10-20T22:23:41.445Z,18.73
2022-10-20T22:26:09.780Z,19.33
2022-10-20T22:28:37.166Z,18.02
2022-10-20T22:31:04.960Z,15.82
2022-10-20T22:33:32.472Z,17.08
2022-10-20T22:35:59.036Z,17.50
2022-10-20T22:38:25.445Z,19.42
2022-10-20T22:40:51.860Z,19.23
2022-10-20T22:43:18.611Z,17.65
2022-10-20T22:45:44.991Z,19.05
2022-10-20T22:48:11.331Z,17.45
2022-10-20T22:50:38.010Z,17.98
2022-10-20T22:53:04.356Z,19.30
2022-10-20T22:55:30.917Z,16.20
2022-10-20T23:00:23.723Z,18.30
2022-10-20T23:02:50.386Z,18.45
2022-10-20T23:05:16.838Z,19.55
2022-10-20T23:07:43.225Z,17.65
2022-10-20T23:10:09.854Z,17.58
2022-10-20T23:12:36.820Z,16.27
2022-10-20T23:15:04.642Z,17.88
2022-10-20T23:17:31.335Z,19.05
2022-10-20T23:19:57.960Z,18.20
2022-10-20T23:22:24.718Z,17.02
2022-10-20T23:24:51.113Z,15.68
2022-10-20T23:27:17.683Z,16.70
2022-10-20T23:29:44.121Z,15.55
2022-10-20T23:32:10.669Z,16.48
2022-10-20T23:34:37.207Z,16.85
2022-10-20T23:37:03.600Z,18.30
2022-10-20T23:39:29.949Z,18.42
2022-10-20T23:41:56.532Z,17.98
2022-10-20T23:44:22.915Z,16.17
2022-10-20T23:46:49.282Z,16.02
2022-10-20T23:49:15.677Z,16.38
2022-10-20T23:51:42.014Z,17.98
2022-10-20T23:54:08.375Z,18.60
2022-10-20T23:56:35.002Z,19.65
2022-10-20T23:59:01.394Z,19.83
